Buffalo, WY

10:02 PM MDT on August 29, 2014 (GMT -0600)
Esponda Ranch | Change Station
CLOSE
Current Station
Personal Weather Station
Location: Buffalo, WY
Elevation: 4665 ft
Nearby Weather Stations

Elev 4665 ft 44.32 °N, 106.67 °W | Updated 3 minutes ago

Clear
Clear
60.2 °F
Feels Like 60.2 °F
N
4.0
Wind Variable Wind from South
Gusts 5.0 mph

Today
High -- | Low -- °F
--% Chance of Precip.
Yesterday
High -- | Low -- °F
Precip. -- in
6:26 AM 7:48 PM
Waxing Crescent, 18% visible
Pressure 29.93 in
Visibility 10.0 miles
Clouds Clear
Dew Point 51 °F
Humidity 72%
Rainfall 0.02 in
Snow Depth Not available.
UV 0 out of 12
Pollen 8.30 out of 12
Air Quality Not available.
Flu Activity Not available.
METAR KBYG 300353Z AUTO 18008KT 10SM CLR 18/08 A3006 RMK AO2 SLP134 T01780083

More Conditions Fewer Conditions

Pressure 29.93 in
Visibility 10.0 miles
Clouds Clear
Dew Point 51 °F
Humidity 72%
Rainfall 0.02 in
Snow Depth Not available.
UV 0 out of 12
Pollen 8.30 out of 12
Air Quality Not available.
Flu Activity Not available.
METAR KBYG 300353Z AUTO 18008KT 10SM CLR 18/08 A3006 RMK AO2 SLP134 T01780083

More Conditions Fewer Conditions

10-Day Weather Forecast

Almanac

Astronomy

Aug. 29, 2014 Rise Set
Actual Time 6:26 AM MDT 7:48 PM MDT
Civil Twilight 5:56 AM MDT 8:18 PM MDT
Nautical Twilight 5:19 AM MDT 8:54 PM MDT
Astronomical Twilight 4:40 AM MDT 9:33 PM MDT
Moon 10:28 AM MDT (8/29) 9:36 PM MDT (8/29)
Length of Visible Light 14h 22m
Length of Day
13h 22m
Tomorrow will be 2m 55s shorter.
Waxing Crescent, 18% of the Moon is Illuminated
Aug 30
Waxing Crescent
Sep 2
First Quarter
Sep 8
Full
Sep 15
Last Quarter
Sep 24
New

Today's Extremes

State Highs State Lows

Community

WunderPhotos

Upload Photos

1,748,445 photos uploaded!

Nearby

Snow Depth

Station Depth Elevation
Bald Mountain 0 in 9380 ft
Casper Mountain 0 in 7850 ft
Big Sandy Opening 0 in 9080 ft
Kendall R.S. 0 in 7740 ft
Gros Ventre Summit 0 in 8750 ft

Earthquake Activity

City Distance Mag. Time & Date
No recent earthquake activity has been reported nearby.
Minimum magnitude displayed is 2.5.

Coastal Water Temperatures

Place Temperature
No Stations Reporting

Nearby Weather Stations